Flight Track Log - Related Links

Times and Time Zones

All times are in EDT time to prevent confusion due to time zone crossing. See the N56359 flight status page for this flight to view local times or setup timezone preferences in your user account.

Time Position Orientation Groundspeed Altitude Reporting Facility
EDT Latitude Longitude Course Direction KTS MPH feet Rate Location/Type
Fri 07:12:53 PM 44.8511 -95.4075 58° Northeast 114 131 5,900  Level Minneapolis Center
Fri 07:13:55 PM 44.8706 -95.3653 57° Northeast 111 128 7,200 484 Climbing Minneapolis Center
Fri 07:14:57 PM 44.8911 -95.3233 55° Northeast 118 136 6,900 -145 Descending Minneapolis Center
Fri 07:15:59 PM 44.9114 -95.2653 64° Northeast 141 162 6,900  Level Minneapolis Center
Fri 07:17:00 PM 44.9309 -95.2625 46° Northeast  Level FlightAware Approximate
Fri 07:17:01 PM 44.9278 -95.2036 69° East 156 180 6,900  Level Minneapolis Center
Fri 07:18:04 PM 44.9522 -95.1544 55° Northeast 158 182 6,900  Level Minneapolis Center
Fri 07:19:07 PM 44.9928 -95.1339 20° North 156 180 6,900  Level Minneapolis Center
Fri 07:20:09 PM 45.0192 -95.0664 61° Northeast 164 189 6,900  Level Minneapolis Center
Fri 07:21:11 PM 45.0464 -95.0156 53° Northeast 161 185 6,900  Level Minneapolis Center
Fri 07:22:13 PM 45.0789 -94.9722 43° Northeast 161 185 6,900  Level Minneapolis Center
Fri 07:23:15 PM 45.1125 -94.9361 37° Northeast 155 178 6,900  Level Minneapolis Center
Fri 07:24:17 PM 45.1458 -94.8956 41° Northeast 157 181 6,900  Level Minneapolis Center
Fri 07:25:19 PM 45.1864 -94.8456 41° Northeast 159 183 6,900  Level Minneapolis Center
Fri 07:26:21 PM 45.2189 -94.8031 43° Northeast 160 184 6,900  Level Minneapolis Center
Fri 07:27:35 PM 45.2569 -94.7508 44° Northeast 159 183 6,900  Level Minneapolis Center
Fri 07:28:37 PM 45.2889 -94.7061 45° Northeast 161 185 6,900 48 Level Minneapolis Center
Fri 07:29:39 PM 45.3206 -94.6597 46° Northeast 163 188 7,000  Climbing Minneapolis Center
Fri 07:30:41 PM 45.3511 -94.6147 46° Northeast 163 188 6,900 -48 Descending Minneapolis Center
Fri 07:31:44 PM 45.3883 -94.5614 45° Northeast 160 184 6,900  Level Minneapolis Center
Fri 07:32:46 PM 45.4189 -94.5175 45° Northeast 158 182 6,900  Level Minneapolis Center
Fri 07:33:47 PM 45.4481 -94.4697 49° Northeast 160 184 6,900  Level Minneapolis Center
Fri 07:34:49 PM 45.4775 -94.4231 48° Northeast 160 184 6,900  Level Minneapolis Center
Fri 07:35:51 PM 45.5069 -94.3767 48° Northeast 159 183 6,900  Level Minneapolis Center
Fri 07:36:53 PM 45.5381 -94.3303 46° Northeast 160 184 6,900  Level Minneapolis Center
Fri 07:37:55 PM 45.5744 -94.2728 48° Northeast 163 188 6,900  Level Minneapolis Center
Fri 07:38:57 PM 45.6050 -94.2267 47° Northeast 162 186 6,900  Level Minneapolis Center
Fri 07:39:59 PM 45.6364 -94.1803 46° Northeast 161 185 6,900  Level Minneapolis Center
Fri 07:41:01 PM 45.6675 -94.1331 47° Northeast 162 186 6,900 48 Level Minneapolis Center
Fri 07:42:03 PM 45.6983 -94.0861 47° Northeast 163 188 7,000 49 Climbing Minneapolis Center
Fri 07:43:04 PM 45.7261 -94.0411 49° Northeast 158 182 7,000 -49 Level Minneapolis Center
Fri 07:44:06 PM 45.7631 -93.9833 47° Northeast 162 186 6,900 -48 Descending Minneapolis Center
Fri 07:45:08 PM 45.7933 -93.9350 48° Northeast 165 190 6,900  Level Minneapolis Center
Fri 07:46:10 PM 45.8233 -93.8886 47° Northeast 161 185 6,900 48 Level Minneapolis Center
Fri 07:47:12 PM 45.8533 -93.8406 48° Northeast 162 186 7,000  Climbing Minneapolis Center
Fri 07:48:13 PM 45.8839 -93.7925 48° Northeast 163 188 6,900  Descending Minneapolis Center
Fri 07:49:15 PM 45.9153 -93.7475 45° Northeast 162 186 7,000  Climbing Minneapolis Center
Fri 07:50:17 PM 45.9458 -93.6981 48° Northeast 164 189 6,900  Descending Minneapolis Center
Fri 07:51:19 PM 45.9842 -93.6433 45° Northeast 164 189 7,000  Climbing Minneapolis Center
Fri 07:52:21 PM 46.0150 -93.5944 48° Northeast 165 190 6,900 -49 Descending Minneapolis Center
Fri 07:53:22 PM 46.0450 -93.5442 49° Northeast 166 191 6,900 49 Level Minneapolis Center
Fri 07:54:24 PM 46.0761 -93.4961 47° Northeast 166 191 7,000 48 Climbing Minneapolis Center
Fri 07:55:26 PM 46.1067 -93.4486 47° Northeast 163 188 7,000 -194 Level Minneapolis Center
Fri 07:56:28 PM 46.1392 -93.4019 45° Northeast 165 190 6,600 -484 Descending Minneapolis Center
Fri 07:57:30 PM 46.1803 -93.3411 46° Northeast 173 199 6,000 -581 Descending Minneapolis Center
Fri 07:58:32 PM 46.2161 -93.2908 44° Northeast 179 206 5,400 -476 Descending Minneapolis Center
Fri 07:59:36 PM 46.2511 -93.2375 46° Northeast 181 208 5,000 -190 Descending Minneapolis Center
Fri 08:00:38 PM 46.2806 -93.1839 52° Northeast 174 200 5,000  Level Minneapolis Center
Fri 08:01:40 PM 46.3097 -93.1314 51° Northeast 171 197 5,000 -97 Level Minneapolis Center
Fri 08:02:42 PM 46.3400 -93.0842 47° Northeast 166 191 4,800 -435 Descending Minneapolis Center
Fri 08:03:44 PM 46.3797 -93.0200 48° Northeast 170 196 4,100 -581 Descending Minneapolis Center
Fri 08:04:46 PM 46.4147 -92.9631 48° Northeast 178 205 3,600 -435 Descending Minneapolis Center
Fri 08:05:48 PM 46.4486 -92.9067 49° Northeast 183 211 3,200 -244 Descending Minneapolis Center
Fri 08:06:49 PM 46.4814 -92.8492 50° Northeast 184 212 3,100 -49 Descending Minneapolis Center
Fri 08:07:51 PM 46.4842 -92.7831 86° East 179 206 3,100  Level Minneapolis Center
Fri 08:08:53 PM 46.4856 -92.7208 88° East 165 190 3,100  Level Minneapolis Center
Fri 08:09:55 PM 46.4942 -92.6439 81° East 162 186 3,100  Level Minneapolis Center
Fri 08:10:57 PM 46.5014 -92.5819 80° East 160 184 3,100  Level Minneapolis Center
Fri 08:11:58 PM 46.5086 -92.5231 80° East 156 180 3,100  Level Minneapolis Center
Fri 08:13:00 PM 46.5297 -92.4786 55° Northeast 164 189 3,100  Level Minneapolis Center
Fri 08:14:02 PM 46.5650 -92.4928 345° North 144 166 3,100  Level Minneapolis Center
Fri 08:15:04 PM 46.6014 -92.5031 349° North 137 158 3,100 -145 Level Minneapolis Center
Fri 08:16:06 PM 46.6358 -92.5047 358° North 130 150 2,800 -581 Descending Minneapolis Center
Fri 08:17:08 PM 46.6728 -92.5042 North 119 137 1,900 -871 Descending Minneapolis Center

Login

Don't have an account? Register now (free) for customized features, flight alerts, and more!